Time;durP1;ratioP1;P1;durP2;ratioP2;P2;SDS_P1;SDS_P2;PMS_P1;PMS_P2;Temp;Humidity;BMP_temperature;BMP_pressure;BME280_temperature;BME280_humidity;BME280_pressure;Samples;Min_cycle;Max_cycle;Signal;HPM_P1;HPM_P2
2023/04/19 00:00:34;;;;;;;8.77;7.07;;;7.70;99.90;;;;;;5026846;28;20438;-78
2023/04/19 00:03:00;;;;;;;9.07;6.72;;;7.70;99.90;;;;;;5028026;28;20410;-77
2023/04/19 00:05:27;;;;;;;7.90;5.93;;;7.70;99.90;;;;;;5033665;28;20499;-78
2023/04/19 00:07:52;;;;;;;7.65;6.68;;;7.70;99.90;;;;;;5040274;28;20444;-79
2023/04/19 00:10:18;;;;;;;7.00;6.18;;;7.60;99.90;;;;;;5031934;28;20423;-75
2023/04/19 00:12:44;;;;;;;7.00;6.28;;;7.60;99.90;;;;;;5028345;28;20421;-78
2023/04/19 00:15:10;;;;;;;7.88;6.35;;;7.60;99.90;;;;;;5028104;28;20456;-76
2023/04/19 00:17:36;;;;;;;9.43;6.50;;;7.50;99.90;;;;;;5030967;28;20423;-76
2023/04/19 00:20:03;;;;;;;8.25;6.28;;;7.60;99.90;;;;;;5034981;28;20425;-75
2023/04/19 00:22:29;;;;;;;8.32;6.82;;;7.60;99.90;;;;;;5037150;28;20423;-77
2023/04/19 00:24:54;;;;;;;8.38;6.55;;;7.70;99.90;;;;;;5042313;28;20429;-77
2023/04/19 00:27:20;;;;;;;8.07;6.25;;;7.60;99.90;;;;;;5044298;28;20433;-75
2023/04/19 00:29:46;;;;;;;8.68;6.88;;;7.50;99.90;;;;;;5042930;28;20508;-76
2023/04/19 00:32:11;;;;;;;7.38;6.30;;;7.70;99.90;;;;;;5039547;28;20757;-76
2023/04/19 00:34:37;;;;;;;9.13;6.47;;;7.60;99.90;;;;;;5029822;28;20433;-75
2023/04/19 00:37:05;;;;;;;9.98;6.32;;;7.60;99.90;;;;;;5028724;28;20460;-76
2023/04/19 00:39:31;;;;;;;10.45;6.50;;;7.60;99.90;;;;;;5030337;28;20422;-77
2023/04/19 00:41:57;;;;;;;9.37;6.67;;;7.50;99.90;;;;;;5044916;28;20437;-78
2023/04/19 00:44:23;;;;;;;8.25;6.18;;;7.60;99.90;;;;;;5027360;28;20422;-77
2023/04/19 00:46:49;;;;;;;7.55;6.72;;;7.60;99.90;;;;;;5030396;28;20514;-76
2023/04/19 00:49:16;;;;;;;7.82;6.57;;;7.60;99.90;;;;;;5022271;28;20561;-78
2023/04/19 00:51:42;;;;;;;8.80;6.60;;;7.50;99.90;;;;;;5051951;28;20436;-77
2023/04/19 00:54:08;;;;;;;7.60;6.20;;;7.50;99.90;;;;;;5034445;28;20427;-77
2023/04/19 00:56:34;;;;;;;7.05;5.88;;;7.40;99.90;;;;;;5032391;28;20575;-77
2023/04/19 00:59:00;;;;;;;7.23;6.23;;;7.50;99.90;;;;;;5033338;28;20974;-75
2023/04/19 01:01:26;;;;;;;7.40;6.68;;;7.40;99.90;;;;;;5038847;28;20939;-75
2023/04/19 01:03:52;;;;;;;7.68;6.60;;;7.30;99.90;;;;;;5021943;28;20473;-75
2023/04/19 01:06:18;;;;;;;8.43;6.63;;;7.30;99.90;;;;;;5022171;28;20542;-75
2023/04/19 01:08:43;;;;;;;9.13;7.17;;;7.30;99.90;;;;;;5042499;28;20606;-76
2023/04/19 01:11:09;;;;;;;7.57;6.18;;;7.20;99.90;;;;;;5028032;28;20417;-76
2023/04/19 01:13:35;;;;;;;8.13;6.82;;;7.20;99.90;;;;;;5048691;28;20480;-75
2023/04/19 01:16:00;;;;;;;7.93;6.95;;;7.10;99.90;;;;;;5031509;28;20797;-76
2023/04/19 01:18:31;;;;;;;8.80;6.55;;;7.10;99.90;;;;;;5042610;28;20415;-76
2023/04/19 01:20:57;;;;;;;7.72;6.60;;;7.20;99.90;;;;;;5028486;28;21016;-75
2023/04/19 01:23:23;;;;;;;7.53;6.45;;;7.10;99.90;;;;;;5024835;28;20492;-76
2023/04/19 01:25:49;;;;;;;10.37;6.97;;;7.20;99.90;;;;;;5011542;28;20512;-76
2023/04/19 01:28:14;;;;;;;9.93;7.00;;;7.20;99.90;;;;;;5028298;28;20470;-79
2023/04/19 01:30:40;;;;;;;9.33;7.00;;;7.30;99.90;;;;;;5034890;28;20410;-76
2023/04/19 01:33:06;;;;;;;9.90;7.60;;;7.30;99.90;;;;;;5012611;28;20841;-76
2023/04/19 01:35:32;;;;;;;9.85;7.22;;;7.30;99.90;;;;;;5029318;28;20421;-76
2023/04/19 01:37:57;;;;;;;8.93;7.77;;;7.30;99.90;;;;;;5024614;28;20511;-78
2023/04/19 01:40:26;;;;;;;10.03;7.30;;;7.30;99.90;;;;;;5026292;28;20762;-78
2023/04/19 01:42:52;;;;;;;9.10;6.97;;;7.30;99.90;;;;;;5046476;28;20429;-75
2023/04/19 01:45:18;;;;;;;15.13;8.13;;;7.30;99.90;;;;;;5044712;28;20915;-78
2023/04/19 01:47:44;;;;;;;10.55;8.18;;;7.30;99.90;;;;;;5038621;28;20979;-77
2023/04/19 01:50:09;;;;;;;9.82;7.75;;;7.30;99.90;;;;;;5041128;28;20417;-75
2023/04/19 01:52:35;;;;;;;10.57;8.27;;;7.20;99.90;;;;;;5035008;28;20437;-76
2023/04/19 01:55:01;;;;;;;11.88;8.88;;;7.20;99.90;;;;;;5029832;28;20879;-76
2023/04/19 01:57:26;;;;;;;8.93;7.93;;;7.20;99.90;;;;;;5034970;28;20421;-75
2023/04/19 01:59:52;;;;;;;14.70;9.77;;;7.20;99.90;;;;;;5029237;28;20911;-77
2023/04/19 02:02:18;;;;;;;11.18;9.00;;;7.20;99.90;;;;;;5033338;28;20419;-77
2023/04/19 02:04:44;;;;;;;11.83;9.17;;;7.20;99.90;;;;;;5037524;28;20435;-76
2023/04/19 02:07:10;;;;;;;14.63;10.63;;;7.20;99.90;;;;;;5039021;28;20427;-79
2023/04/19 02:09:37;;;;;;;13.00;9.47;;;7.20;99.90;;;;;;5031770;28;20470;-76
2023/04/19 02:12:04;;;;;;;11.47;9.53;;;7.20;99.90;;;;;;5032453;28;20452;-75
2023/04/19 02:14:30;;;;;;;13.77;10.68;;;7.30;99.90;;;;;;5041701;28;20418;-75
2023/04/19 02:16:56;;;;;;;14.20;11.07;;;7.30;99.90;;;;;;5039231;28;20439;-78
2023/04/19 02:19:22;;;;;;;12.15;10.18;;;7.30;99.90;;;;;;5036989;28;20423;-78
2023/04/19 02:21:48;;;;;;;12.73;10.63;;;7.30;99.90;;;;;;5036600;28;20427;-76
2023/04/19 02:24:13;;;;;;;11.30;9.87;;;7.20;99.90;;;;;;5029046;28;20889;-75
2023/04/19 02:26:39;;;;;;;11.77;9.98;;;7.20;99.90;;;;;;5030672;28;20511;-76
2023/04/19 02:29:06;;;;;;;13.82;10.60;;;7.20;99.90;;;;;;5034138;28;20481;-76
2023/04/19 02:31:31;;;;;;;11.57;10.35;;;7.10;99.90;;;;;;5036635;28;20429;-75
2023/04/19 02:33:57;;;;;;;14.38;9.85;;;7.10;99.90;;;;;;5037289;28;20419;-76
2023/04/19 02:36:22;;;;;;;13.90;10.65;;;7.20;99.90;;;;;;5031499;28;20421;-78
2023/04/19 02:38:48;;;;;;;13.02;9.35;;;7.10;99.90;;;;;;5037542;28;20484;-77
2023/04/19 02:41:14;;;;;;;12.05;9.80;;;7.10;99.90;;;;;;5025951;28;20504;-76
2023/04/19 02:43:40;;;;;;;11.73;9.73;;;7.10;99.90;;;;;;5031554;28;20431;-77
2023/04/19 02:46:06;;;;;;;10.93;9.73;;;7.00;99.90;;;;;;5033178;28;20432;-75
2023/04/19 02:48:31;;;;;;;13.43;9.55;;;7.00;99.90;;;;;;5034795;28;20433;-77
2023/04/19 02:50:57;;;;;;;11.45;10.00;;;6.90;99.90;;;;;;5032105;28;20425;-76
2023/04/19 02:53:23;;;;;;;15.98;10.15;;;6.90;99.90;;;;;;5045669;28;20429;-76
2023/04/19 02:55:48;;;;;;;12.85;10.13;;;7.00;99.90;;;;;;5032281;28;20419;-75
2023/04/19 02:58:14;;;;;;;11.02;9.15;;;6.90;99.90;;;;;;5035375;28;20425;-79
2023/04/19 03:00:40;;;;;;;15.95;9.65;;;6.90;99.90;;;;;;5031278;28;20447;-77
2023/04/19 03:03:06;;;;;;;12.02;10.35;;;6.80;99.90;;;;;;5028058;28;20453;-77
2023/04/19 03:05:32;;;;;;;13.00;9.37;;;6.80;99.90;;;;;;5038383;28;20874;-77
2023/04/19 03:07:57;;;;;;;10.07;8.87;;;6.80;99.90;;;;;;5032806;28;20441;-79
2023/04/19 03:10:23;;;;;;;10.77;8.57;;;6.70;99.90;;;;;;5027622;28;20410;-76
2023/04/19 03:12:49;;;;;;;11.23;9.43;;;6.80;99.90;;;;;;5043846;28;20443;-76
2023/04/19 03:15:14;;;;;;;12.30;9.20;;;6.70;99.90;;;;;;5045484;28;20409;-79
2023/04/19 03:17:40;;;;;;;9.17;8.13;;;6.60;99.90;;;;;;5037337;28;20460;-76
2023/04/19 03:20:10;;;;;;;10.50;7.77;;;6.60;99.90;;;;;;5021541;28;20506;-75
2023/04/19 03:22:36;;;;;;;10.70;8.02;;;6.60;99.90;;;;;;5034909;28;20826;-76
2023/04/19 03:25:03;;;;;;;12.80;8.07;;;6.60;99.90;;;;;;5046629;28;20444;-77
2023/04/19 03:27:28;;;;;;;9.57;7.88;;;6.50;99.90;;;;;;5040387;28;20803;-77
2023/04/19 03:29:55;;;;;;;10.45;7.80;;;6.50;99.90;;;;;;5031237;28;20433;-75
2023/04/19 03:32:21;;;;;;;11.48;7.72;;;6.40;99.90;;;;;;5022789;28;20443;-76
2023/04/19 03:34:46;;;;;;;8.52;6.80;;;6.50;99.90;;;;;;5034502;28;20435;-77
2023/04/19 03:37:12;;;;;;;11.35;7.85;;;6.40;99.90;;;;;;5026433;28;20434;-76
2023/04/19 03:39:38;;;;;;;11.37;7.80;;;6.40;99.90;;;;;;5010827;28;20418;-76
2023/04/19 03:42:03;;;;;;;8.13;6.30;;;6.40;99.90;;;;;;5025055;28;20435;-76
2023/04/19 03:44:32;;;;;;;10.07;7.38;;;6.40;99.90;;;;;;5033190;28;20421;-76
2023/04/19 03:46:58;;;;;;;10.75;7.10;;;6.30;99.90;;;;;;5038281;28;20441;-80
2023/04/19 03:49:24;;;;;;;9.90;7.25;;;6.30;99.90;;;;;;5029939;28;20915;-76
2023/04/19 03:51:49;;;;;;;9.68;6.68;;;6.20;99.90;;;;;;5035270;28;20437;-76
2023/04/19 03:54:15;;;;;;;8.88;6.93;;;6.20;99.90;;;;;;5037064;28;20418;-74
2023/04/19 03:56:41;;;;;;;9.57;7.38;;;6.10;99.90;;;;;;5038380;28;21005;-76
2023/04/19 03:59:08;;;;;;;9.37;6.37;;;6.00;99.90;;;;;;5027589;28;20937;-75
2023/04/19 04:01:33;;;;;;;12.80;7.03;;;5.90;99.90;;;;;;5037884;28;20793;-79
2023/04/19 04:03:59;;;;;;;8.40;6.17;;;6.00;99.90;;;;;;5032804;28;20468;-76
2023/04/19 04:06:25;;;;;;;9.07;6.45;;;5.90;99.90;;;;;;5041154;28;20429;-75
2023/04/19 04:08:51;;;;;;;7.40;6.43;;;5.70;99.90;;;;;;5031228;28;20425;-75
2023/04/19 04:11:17;;;;;;;8.30;6.40;;;5.80;99.90;;;;;;5027249;28;20805;-75
2023/04/19 04:13:45;;;;;;;8.63;6.40;;;5.80;99.90;;;;;;5025238;28;20427;-75
2023/04/19 04:16:10;;;;;;;10.07;6.35;;;5.80;99.90;;;;;;5025648;28;20429;-77
2023/04/19 04:18:36;;;;;;;10.20;6.30;;;5.80;99.90;;;;;;5024817;28;20482;-76
2023/04/19 04:21:02;;;;;;;10.17;6.67;;;5.80;99.90;;;;;;5025747;28;20502;-75
2023/04/19 04:23:27;;;;;;;9.53;6.90;;;5.60;99.90;;;;;;5041923;28;20499;-78
2023/04/19 04:26:00;;;;;;;10.80;7.67;;;5.50;99.90;;;;;;5026397;28;20434;-75
2023/04/19 04:28:26;;;;;;;9.43;6.53;;;5.50;99.90;;;;;;5041126;28;20429;-78
2023/04/19 04:30:56;;;;;;;8.10;6.63;;;5.50;99.90;;;;;;5036875;28;20432;-76
2023/04/19 04:33:25;;;;;;;10.53;6.20;;;5.50;99.90;;;;;;5024724;28;20472;-76
2023/04/19 04:35:52;;;;;;;8.95;6.70;;;5.50;99.90;;;;;;5035740;28;20429;-76
2023/04/19 04:38:18;;;;;;;8.05;6.03;;;5.60;99.90;;;;;;5041131;28;20429;-78
2023/04/19 04:40:49;;;;;;;9.07;6.10;;;5.70;99.90;;;;;;5040446;28;20921;-77
2023/04/19 04:43:15;;;;;;;8.82;6.47;;;5.70;99.90;;;;;;5043025;28;20824;-75
2023/04/19 04:45:43;;;;;;;9.20;6.40;;;5.60;99.90;;;;;;5041323;28;20586;-80
2023/04/19 04:48:08;;;;;;;10.20;6.70;;;5.70;99.90;;;;;;5042429;28;20487;-78
2023/04/19 04:50:34;;;;;;;7.90;6.40;;;5.90;99.90;;;;;;5029640;28;20430;-79
2023/04/19 04:53:01;;;;;;;9.95;6.55;;;6.20;99.90;;;;;;5040700;28;20436;-78
2023/04/19 04:55:27;;;;;;;7.82;5.70;;;6.40;99.90;;;;;;5040860;28;20774;-78
2023/04/19 04:57:52;;;;;;;9.38;6.35;;;6.20;99.90;;;;;;5043243;28;20433;-77
2023/04/19 05:00:18;;;;;;;8.43;5.88;;;6.10;99.90;;;;;;5037321;28;20409;-76
2023/04/19 05:02:44;;;;;;;8.40;5.28;;;6.00;99.90;;;;;;5042991;28;20959;-76
2023/04/19 05:05:10;;;;;;;6.32;4.93;;;6.20;99.90;;;;;;5031932;28;20449;-75
2023/04/19 05:07:35;;;;;;;8.68;5.28;;;6.50;99.90;;;;;;5040417;28;20433;-76
2023/04/19 05:10:01;;;;;;;7.68;5.03;;;6.60;99.90;;;;;;5037085;28;20465;-76
2023/04/19 05:12:27;;;;;;;6.75;4.70;;;6.30;99.90;;;;;;5039666;28;20432;-75
2023/04/19 05:14:52;;;;;;;10.68;5.47;;;6.40;99.90;;;;;;5030154;28;20513;-75
2023/04/19 05:17:18;;;;;;;8.00;5.03;;;6.50;99.90;;;;;;5046820;28;20425;-75
2023/04/19 05:19:44;;;;;;;7.28;5.20;;;6.60;99.90;;;;;;5031328;28;20428;-75
2023/04/19 05:22:09;;;;;;;6.57;4.88;;;6.60;99.90;;;;;;5034251;28;20444;-75
2023/04/19 05:24:35;;;;;;;6.82;4.97;;;6.80;99.90;;;;;;5046445;28;20425;-75
2023/04/19 05:27:01;;;;;;;7.40;4.97;;;6.80;99.90;;;;;;5043898;28;20986;-76
2023/04/19 05:29:26;;;;;;;8.15;5.38;;;6.50;99.90;;;;;;5029892;28;20423;-76
2023/04/19 05:31:52;;;;;;;8.63;4.43;;;6.70;99.90;;;;;;5031310;28;20441;-75
2023/04/19 05:34:18;;;;;;;7.00;5.18;;;7.30;99.90;;;;;;5045373;28;20478;-76
2023/04/19 05:36:43;;;;;;;7.90;4.90;;;7.60;99.90;;;;;;5043904;28;20443;-76
2023/04/19 05:39:09;;;;;;;7.05;4.85;;;7.20;99.90;;;;;;5033535;28;20409;-76
2023/04/19 05:41:35;;;;;;;7.63;4.78;;;7.70;99.90;;;;;;5040418;28;20820;-75
2023/04/19 05:44:00;;;;;;;7.70;4.97;;;7.80;99.90;;;;;;5028314;28;20452;-76
2023/04/19 05:46:26;;;;;;;6.83;4.83;;;7.90;99.90;;;;;;5034689;28;20430;-76
2023/04/19 05:48:52;;;;;;;7.20;4.47;;;7.30;99.90;;;;;;5031211;28;20439;-76
2023/04/19 05:51:17;;;;;;;5.37;3.50;;;7.30;99.90;;;;;;5036380;28;20512;-77
2023/04/19 05:53:44;;;;;;;6.20;4.07;;;7.50;99.90;;;;;;5037211;28;20506;-76
2023/04/19 05:56:10;;;;;;;10.90;4.22;;;7.50;99.90;;;;;;5043096;28;20974;-76
2023/04/19 05:58:36;;;;;;;8.93;3.97;;;7.30;99.90;;;;;;5034213;28;20439;-77
2023/04/19 06:01:03;;;;;;;8.13;4.17;;;7.50;99.90;;;;;;5030507;28;20456;-75
2023/04/19 06:03:29;;;;;;;7.88;3.97;;;7.30;99.90;;;;;;5033641;28;20428;-75
2023/04/19 06:05:54;;;;;;;7.22;4.10;;;7.40;99.90;;;;;;5029399;28;20500;-75
2023/04/19 06:08:20;;;;;;;5.78;3.80;;;7.40;99.90;;;;;;5022767;28;20419;-75
2023/04/19 06:10:48;;;;;;;7.43;4.18;;;7.40;99.90;;;;;;5031448;28;20435;-75
2023/04/19 06:13:14;;;;;;;7.00;4.28;;;7.50;99.90;;;;;;5043577;28;20425;-75
2023/04/19 06:15:40;;;;;;;6.45;4.00;;;7.70;99.90;;;;;;5045259;28;20563;-76
2023/04/19 06:18:09;;;;;;;6.22;3.70;;;7.80;99.90;;;;;;5034754;28;20467;-76
2023/04/19 06:20:38;;;;;;;5.17;3.53;;;7.70;99.90;;;;;;5020219;28;20455;-76
2023/04/19 06:23:04;;;;;;;6.28;3.90;;;8.10;99.90;;;;;;5036987;28;20425;-76
2023/04/19 06:25:30;;;;;;;5.97;3.72;;;7.90;99.90;;;;;;5027501;28;20424;-77
2023/04/19 06:27:56;;;;;;;6.20;3.53;;;7.90;99.90;;;;;;5025199;28;20438;-76
2023/04/19 06:30:21;;;;;;;7.57;3.78;;;8.00;99.90;;;;;;5024481;28;20441;-75
2023/04/19 06:32:47;;;;;;;5.63;3.65;;;8.10;99.90;;;;;;5047442;28;20558;-76
2023/04/19 06:35:13;;;;;;;4.75;3.35;;;7.90;99.90;;;;;;5039418;28;20975;-75
2023/04/19 06:37:39;;;;;;;5.57;4.00;;;8.20;99.90;;;;;;5039870;28;20425;-77
2023/04/19 06:40:07;;;;;;;5.93;3.10;;;8.00;99.90;;;;;;5037146;28;20981;-75
2023/04/19 06:42:36;;;;;;;10.23;3.95;;;7.90;99.90;;;;;;5032210;28;20431;-75
2023/04/19 06:45:03;;;;;;;5.10;2.58;;;8.10;99.90;;;;;;5030541;28;20920;-76
2023/04/19 06:47:29;;;;;;;3.93;2.73;;;8.30;99.90;;;;;;5043469;28;20516;-77
2023/04/19 06:49:55;;;;;;;4.60;3.25;;;8.60;99.90;;;;;;5031290;28;20431;-76
2023/04/19 06:52:21;;;;;;;5.45;2.90;;;8.80;99.90;;;;;;5047415;28;20746;-77
2023/04/19 06:54:50;;;;;;;5.82;3.40;;;8.90;99.90;;;;;;5038838;28;20434;-76
2023/04/19 06:57:17;;;;;;;2.93;2.27;;;9.20;99.90;;;;;;5031155;28;20485;-76
2023/04/19 06:59:43;;;;;;;6.05;2.92;;;9.40;99.90;;;;;;5023369;28;20430;-78
2023/04/19 07:02:09;;;;;;;4.63;2.85;;;9.40;99.90;;;;;;5038216;28;20829;-77
2023/04/19 07:04:35;;;;;;;5.57;3.13;;;9.60;99.90;;;;;;5047068;28;20402;-77
2023/04/19 07:07:01;;;;;;;5.50;2.88;;;10.50;99.90;;;;;;5031659;28;20841;-77
2023/04/19 07:09:27;;;;;;;4.93;2.83;;;10.80;99.90;;;;;;5041301;28;20426;-76
2023/04/19 07:11:53;;;;;;;4.90;2.45;;;10.80;99.90;;;;;;5041388;28;20440;-75
2023/04/19 07:14:19;;;;;;;4.68;2.72;;;11.00;99.90;;;;;;5041142;28;20945;-76
2023/04/19 07:16:46;;;;;;;4.05;2.65;;;9.40;99.90;;;;;;5033903;28;20429;-75
2023/04/19 07:19:12;;;;;;;2.72;1.92;;;9.20;99.90;;;;;;5047246;28;20727;-77
2023/04/19 07:21:38;;;;;;;4.60;2.30;;;8.90;99.90;;;;;;5037706;28;20457;-76
2023/04/19 07:24:07;;;;;;;3.10;2.10;;;9.00;99.90;;;;;;5015155;28;20875;-75
2023/04/19 07:26:33;;;;;;;4.15;2.30;;;9.00;99.90;;;;;;5035150;28;20437;-76
2023/04/19 07:28:59;;;;;;;4.45;1.92;;;9.10;99.90;;;;;;5032146;28;20501;-76
2023/04/19 07:31:26;;;;;;;2.90;2.05;;;9.30;99.90;;;;;;5025280;28;20441;-76
2023/04/19 07:33:52;;;;;;;2.72;1.90;;;9.10;99.90;;;;;;5022367;28;20979;-76
2023/04/19 07:36:17;;;;;;;2.23;1.73;;;9.20;99.90;;;;;;5060882;28;20516;-76
2023/04/19 07:38:43;;;;;;;3.90;2.43;;;9.50;99.90;;;;;;5045906;28;20405;-76
2023/04/19 07:41:09;;;;;;;5.20;2.53;;;9.60;99.90;;;;;;5025671;28;20467;-76
2023/04/19 07:43:35;;;;;;;5.40;2.20;;;9.50;99.90;;;;;;5017740;28;20477;-75
2023/04/19 07:46:01;;;;;;;3.75;2.15;;;9.70;99.90;;;;;;5032863;28;20425;-77
2023/04/19 07:48:27;;;;;;;4.35;1.85;;;9.50;99.90;;;;;;5042369;28;20432;-76
2023/04/19 07:50:53;;;;;;;3.93;2.00;;;9.20;99.90;;;;;;5022342;28;20787;-76
2023/04/19 07:53:18;;;;;;;6.38;2.80;;;9.50;99.90;;;;;;5057003;28;20431;-76
2023/04/19 07:55:44;;;;;;;2.70;1.80;;;9.50;99.90;;;;;;5057711;28;20427;-76
2023/04/19 07:58:10;;;;;;;2.75;2.10;;;9.60;99.90;;;;;;5025261;28;20433;-75
2023/04/19 08:00:36;;;;;;;4.33;2.30;;;9.50;99.90;;;;;;5025743;28;20419;-75
2023/04/19 08:03:02;;;;;;;2.97;2.05;;;9.80;99.90;;;;;;5021855;28;20442;-76
2023/04/19 08:05:28;;;;;;;3.40;1.77;;;9.60;99.90;;;;;;5027750;28;20471;-78
2023/04/19 08:07:55;;;;;;;4.53;2.15;;;9.90;99.90;;;;;;5033177;28;20431;-76
2023/04/19 08:10:21;;;;;;;3.20;2.05;;;9.90;99.90;;;;;;5025796;28;20426;-77
2023/04/19 08:12:47;;;;;;;4.55;1.92;;;9.90;99.90;;;;;;5025523;28;20494;-76
2023/04/19 08:15:12;;;;;;;2.95;2.10;;;10.10;99.90;;;;;;5026378;28;20877;-76
2023/04/19 08:17:41;;;;;;;6.10;2.33;;;10.10;99.90;;;;;;5026004;28;20511;-78
2023/04/19 08:20:10;;;;;;;4.70;2.38;;;10.20;99.90;;;;;;5021630;28;20418;-78
2023/04/19 08:22:36;;;;;;;4.25;2.22;;;10.40;99.90;;;;;;5027001;28;20457;-76
2023/04/19 08:25:02;;;;;;;2.97;1.98;;;10.40;99.90;;;;;;5028367;28;20466;-76
2023/04/19 08:27:28;;;;;;;5.28;2.40;;;10.30;99.90;;;;;;5029597;28;20435;-76
2023/04/19 08:29:53;;;;;;;4.10;2.00;;;10.40;99.90;;;;;;5030132;28;20426;-77
2023/04/19 08:32:19;;;;;;;5.80;2.00;;;10.20;99.90;;;;;;5022190;28;20471;-76
2023/04/19 08:34:45;;;;;;;2.90;1.98;;;10.40;99.90;;;;;;5010435;28;20451;-77
2023/04/19 08:37:10;;;;;;;4.87;1.87;;;10.40;99.90;;;;;;5035707;28;20474;-77
2023/04/19 08:39:36;;;;;;;3.40;2.25;;;10.50;99.90;;;;;;5030321;28;20732;-77
2023/04/19 08:42:09;;;;;;;4.00;2.13;;;10.60;99.90;;;;;;5029392;28;20446;-75
2023/04/19 08:44:37;;;;;;;5.30;2.30;;;10.70;99.90;;;;;;5028936;28;20845;-76
2023/04/19 08:47:04;;;;;;;3.92;2.10;;;11.10;99.90;;;;;;5042762;28;21012;-76
2023/04/19 08:49:33;;;;;;;4.85;2.50;;;11.00;99.90;;;;;;5049397;28;20901;-76
2023/04/19 08:52:01;;;;;;;5.25;2.13;;;10.90;99.90;;;;;;5028437;28;20431;-76
2023/04/19 08:54:28;;;;;;;3.28;2.20;;;11.00;99.90;;;;;;5033252;28;20416;-77
2023/04/19 08:56:57;;;;;;;3.17;2.03;;;11.00;99.90;;;;;;5038118;28;20422;-76
2023/04/19 08:59:22;;;;;;;5.28;1.90;;;10.80;99.90;;;;;;5028190;28;20429;-78
2023/04/19 09:01:49;;;;;;;5.45;2.13;;;10.80;99.90;;;;;;5028070;28;20498;-78
2023/04/19 09:04:14;;;;;;;4.90;1.95;;;11.10;99.90;;;;;;5032389;28;20417;-77
2023/04/19 09:06:40;;;;;;;4.63;2.70;;;10.90;99.90;;;;;;5043179;28;20434;-76
2023/04/19 09:09:15;;;;;;;2.85;1.60;;;10.70;99.90;;;;;;5036326;28;20409;-78
2023/04/19 09:11:41;;;;;;;3.25;2.22;;;10.90;99.90;;;;;;5032549;28;20922;-77
2023/04/19 09:14:08;;;;;;;3.63;1.60;;;11.30;99.90;;;;;;5028483;28;20411;-78
2023/04/19 09:16:36;;;;;;;3.00;1.58;;;11.20;99.90;;;;;;5030211;28;20427;-77
2023/04/19 09:19:02;;;;;;;3.50;1.67;;;11.30;99.90;;;;;;5058255;28;20458;-76
2023/04/19 09:21:33;;;;;;;3.13;1.50;;;11.50;99.90;;;;;;5029105;28;20434;-77
2023/04/19 09:23:59;;;;;;;3.20;1.30;;;11.50;99.90;;;;;;5029468;28;21131;-76
2023/04/19 09:26:28;;;;;;;1.90;1.48;;;11.50;99.90;;;;;;5041919;28;20438;-76
2023/04/19 09:28:58;;;;;;;3.67;1.40;;;11.20;99.90;;;;;;5031644;28;20471;-76
2023/04/19 09:31:25;;;;;;;2.30;1.10;;;11.70;99.90;;;;;;5023479;28;20517;-76
2023/04/19 09:33:52;;;;;;;3.85;1.30;;;11.60;99.90;;;;;;5027916;28;20753;-77
2023/04/19 09:36:31;;;;;;;1.92;1.10;;;11.40;99.70;;;;;;5027290;28;20435;-75
2023/04/19 09:38:58;;;;;;;3.83;1.55;;;11.60;99.70;;;;;;5031772;28;20449;-75
2023/04/19 09:41:24;;;;;;;3.07;1.50;;;11.60;99.90;;;;;;5033715;28;20620;-75
2023/04/19 09:43:51;;;;;;;1.88;1.20;;;11.70;99.90;;;;;;5029947;28;20486;-76
2023/04/19 09:46:35;;;;;;;3.35;1.17;;;11.80;99.90;;;;;;5010586;28;20778;-76
2023/04/19 09:49:12;;;;;;;4.32;1.58;;;11.60;98.80;;;;;;5038304;28;20494;-77
2023/04/19 09:51:42;;;;;;;3.45;1.42;;;11.60;99.90;;;;;;5033930;28;20477;-75
2023/04/19 09:54:10;;;;;;;2.70;1.30;;;11.90;99.90;;;;;;5031443;28;20435;-77
2023/04/19 09:56:36;;;;;;;2.95;1.40;;;12.00;99.90;;;;;;5041881;28;20446;-77
2023/04/19 09:59:03;;;;;;;5.85;1.60;;;12.40;99.90;;;;;;5029553;28;20454;-77
2023/04/19 10:01:41;;;;;;;3.58;1.20;;;12.20;99.90;;;;;;5028731;28;20418;-77
2023/04/19 10:04:10;;;;;;;3.60;1.23;;;12.20;99.90;;;;;;5030276;28;20424;-76
2023/04/19 10:06:36;;;;;;;2.67;1.50;;;12.50;99.90;;;;;;5048116;28;20463;-77
2023/04/19 10:09:03;;;;;;;3.85;1.63;;;12.40;99.90;;;;;;5028661;28;20469;-77
2023/04/19 10:11:37;;;;;;;4.65;2.15;;;12.30;99.90;;;;;;5028138;28;20439;-77
2023/04/19 10:14:10;;;;;;;3.38;1.50;;;12.50;99.90;;;;;;5027204;28;20481;-77
2023/04/19 10:16:37;;;;;;;3.05;1.30;;;12.60;99.90;;;;;;5029330;28;20823;-77
2023/04/19 10:19:10;;;;;;;4.70;1.88;;;12.80;99.90;;;;;;5027327;28;20442;-77
2023/04/19 10:21:37;;;;;;;2.17;1.30;;;12.60;99.90;;;;;;5029245;28;20403;-78
2023/04/19 10:24:04;;;;;;;2.63;1.20;;;12.60;98.60;;;;;;5028961;28;20404;-76
2023/04/19 10:26:49;;;;;;;1.50;1.27;;;12.50;97.80;;;;;;5039297;28;20447;-75
2023/04/19 10:29:15;;;;;;;3.63;1.60;;;12.50;98.10;;;;;;5027923;28;20446;-75
2023/04/19 10:31:41;;;;;;;5.07;1.40;;;12.50;98.20;;;;;;5028268;28;20411;-77
2023/04/19 10:34:06;;;;;;;2.05;1.25;;;12.60;99.30;;;;;;5026681;28;20914;-75
2023/04/19 10:36:32;;;;;;;3.55;1.35;;;12.60;98.80;;;;;;5028547;28;20922;-77
2023/04/19 10:38:58;;;;;;;3.60;1.55;;;12.60;98.10;;;;;;5027125;28;20564;-76
2023/04/19 10:41:57;;;;;;;4.32;1.60;;;12.50;97.40;;;;;;5028354;28;20899;-77
2023/04/19 10:44:23;;;;;;;1.40;0.88;;;12.50;96.80;;;;;;5041743;28;20459;-75
2023/04/19 10:46:48;;;;;;;4.53;1.50;;;12.70;97.20;;;;;;5047240;28;20487;-76
2023/04/19 10:49:14;;;;;;;10.27;1.75;;;12.70;96.60;;;;;;5043022;28;20421;-77
2023/04/19 10:51:48;;;;;;;3.90;1.00;;;12.70;96.00;;;;;;5048534;28;20406;-77
2023/04/19 10:54:27;;;;;;;4.57;1.35;;;12.80;97.00;;;;;;5036890;28;20771;-76
2023/04/19 10:57:06;;;;;;;1.08;0.80;;;12.60;96.40;;;;;;5031796;28;20741;-77
2023/04/19 10:59:36;;;;;;;3.05;1.10;;;12.80;96.60;;;;;;5027844;28;20423;-77
2023/04/19 11:02:24;;;;;;;2.45;0.98;;;13.00;96.50;;;;;;5027754;28;20410;-77
2023/04/19 11:04:49;;;;;;;2.72;1.02;;;12.90;96.10;;;;;;5026624;28;20423;-77
2023/04/19 11:07:22;;;;;;;2.80;1.10;;;12.80;96.30;;;;;;5027913;28;20431;-77
2023/04/19 11:09:49;;;;;;;1.52;0.95;;;12.90;97.30;;;;;;5026131;28;20960;-76
2023/04/19 11:12:17;;;;;;;1.30;0.70;;;13.00;96.30;;;;;;5048198;28;20468;-78
2023/04/19 11:14:52;;;;;;;2.45;1.13;;;12.90;95.00;;;;;;5047467;28;20949;-78
2023/04/19 11:17:26;;;;;;;2.03;1.10;;;13.10;97.20;;;;;;5047266;28;20413;-77
2023/04/19 11:19:59;;;;;;;2.22;0.82;;;13.20;96.20;;;;;;5034915;28;20984;-78
2023/04/19 11:22:28;;;;;;;2.15;1.00;;;13.20;96.50;;;;;;5026181;28;20414;-78
2023/04/19 11:24:54;;;;;;;3.15;1.08;;;13.30;99.00;;;;;;5041733;28;20528;-78
2023/04/19 11:27:20;;;;;;;1.23;0.85;;;13.10;96.80;;;;;;5024398;28;20469;-78
2023/04/19 11:29:46;;;;;;;1.77;0.73;;;13.00;96.40;;;;;;5026890;28;20426;-79
2023/04/19 11:32:11;;;;;;;6.83;1.17;;;12.80;95.70;;;;;;5021406;28;20426;-77
2023/04/19 11:34:39;;;;;;;5.85;1.00;;;13.20;96.30;;;;;;5025192;28;20431;-77
2023/04/19 11:37:05;;;;;;;2.40;1.00;;;13.10;97.50;;;;;;5026432;28;20431;-77
2023/04/19 11:39:30;;;;;;;4.70;0.85;;;13.20;96.30;;;;;;5027906;28;20839;-78
2023/04/19 11:41:57;;;;;;;2.07;0.90;;;13.20;97.20;;;;;;5026417;28;20426;-77
2023/04/19 11:44:23;;;;;;;3.65;1.30;;;13.10;96.80;;;;;;5027577;28;20417;-77
2023/04/19 11:47:02;;;;;;;2.50;0.90;;;13.30;96.70;;;;;;5027195;28;21075;-76
2023/04/19 11:49:32;;;;;;;1.75;1.17;;;13.00;98.00;;;;;;5022051;28;20424;-78
2023/04/19 11:52:00;;;;;;;1.70;0.90;;;12.80;96.80;;;;;;5024471;28;20453;-77
2023/04/19 11:54:27;;;;;;;2.58;1.08;;;13.40;99.60;;;;;;5023159;28;20454;-77
2023/04/19 11:57:01;;;;;;;2.10;1.60;;;13.20;97.20;;;;;;5020361;28;20775;-77
2023/04/19 11:59:27;;;;;;;2.60;1.10;;;13.50;99.90;;;;;;5022064;28;20431;-77
2023/04/19 12:01:53;;;;;;;3.00;1.17;;;12.90;97.00;;;;;;5021020;28;20493;-79
2023/04/19 12:04:20;;;;;;;2.80;1.10;;;13.40;99.90;;;;;;5024529;28;20426;-77
2023/04/19 12:06:56;;;;;;;3.47;1.80;;;13.40;99.50;;;;;;5023715;28;20431;-77
2023/04/19 12:09:22;;;;;;;3.75;1.70;;;13.40;99.10;;;;;;5022963;28;20418;-76
2023/04/19 12:11:50;;;;;;;5.50;2.15;;;13.10;99.90;;;;;;5035795;28;20426;-77
2023/04/19 12:14:22;;;;;;;3.35;1.25;;;13.10;99.90;;;;;;5026601;28;20403;-78
2023/04/19 12:17:09;;;;;;;2.72;1.45;;;13.30;99.90;;;;;;5020344;28;20444;-76
2023/04/19 12:19:41;;;;;;;4.87;2.20;;;12.90;99.60;;;;;;5022784;28;21627;-77
2023/04/19 12:22:16;;;;;;;2.90;1.87;;;13.00;99.90;;;;;;5032114;28;20500;-76
2023/04/19 12:24:42;;;;;;;4.38;1.45;;;13.20;99.90;;;;;;5034082;28;20427;-78
2023/04/19 12:27:08;;;;;;;2.55;1.65;;;13.20;99.90;;;;;;5060494;28;20435;-75
2023/04/19 12:29:35;;;;;;;1.85;1.30;;;13.00;99.80;;;;;;5026867;28;20421;-76
2023/04/19 12:32:01;;;;;;;3.35;1.60;;;13.20;99.90;;;;;;5024793;28;20950;-77
2023/04/19 12:34:27;;;;;;;4.18;1.92;;;13.00;99.90;;;;;;5024347;28;20445;-76
2023/04/19 12:36:53;;;;;;;2.88;1.40;;;13.10;99.90;;;;;;5025611;28;20427;-77
2023/04/19 12:39:19;;;;;;;4.47;1.63;;;13.40;99.90;;;;;;5023289;28;20476;-76
2023/04/19 12:41:47;;;;;;;6.65;2.45;;;13.10;99.90;;;;;;5024106;28;20415;-76
2023/04/19 12:44:13;;;;;;;5.55;2.70;;;13.00;99.90;;;;;;5023227;28;20457;-77
2023/04/19 12:46:39;;;;;;;6.78;2.47;;;13.00;99.90;;;;;;5023214;28;20517;-77
2023/04/19 12:49:05;;;;;;;6.45;2.85;;;13.20;99.90;;;;;;5024424;28;20506;-77